Overview Statistics Trail Chart Weather Telemetry Raw packets
 

This is the latest recevied weather packets stored in our database for station/object PU5FJO-13. If no packets are shown the sender has not sent any weather packets the latest 10 day(s).

<< 12 13 14 15 16 17 18 >>
Time Temp. Humidity Pressure Rain* Wind** Luminosity Snow
1777617969 18.33° C 77% 1019.2 hPa - - - -
1777617369 18.33° C 77% 1019.3 hPa - - - -
1777616769 18.33° C 76% 1019.3 hPa - - - -
1777616169 17.22° C 80% 1019.5 hPa - - - -
1777615569 17.22° C 81% 1019.6 hPa - - - -
1777614969 17.78° C 81% 1019.8 hPa - - - -
1777614369 17.78° C 80% 1019.8 hPa - - - -
1777613769 18.33° C 79% 1020 hPa - - - -
1777613169 18.33° C 79% 1020.2 hPa - - - -
1777612569 17.78° C 82% 1020.2 hPa - - - -
1777611969 17.78° C 80% 1020.4 hPa - - - -
1777611369 18.89° C 77% 1020.3 hPa - - - -
1777610769 18.33° C 77% 1020.6 hPa - - - -
1777610169 18.89° C 77% 1020.5 hPa - - - -
1777609569 18.89° C 76% 1020.6 hPa - - - -
1777608969 19.44° C 76% 1020.6 hPa - - - -
1777608369 19.44° C 76% 1020.8 hPa - - - -
1777607769 18.89° C 78% 1020.8 hPa - - - -
1777607169 18.33° C 79% 1021.1 hPa - - - -
1777606569 20° C 73% 1021 hPa - - - -
1777605969 19.44° C 74% 1021 hPa - - - -
1777605369 20° C 75% 1021.1 hPa - - - -
1777604769 19.44° C 77% 1021.2 hPa - - - -
1777604169 20° C 73% 1021.1 hPa - - - -
1777603569 20° C 74% 1021.1 hPa - - - -

* Rain since midnight (hover to see other rain measurements)
** Current wind speed in m/s (hover to see current wind gust speed)